sensor_id;sensor_type;location;lat;lon;timestamp;P1;durP1;ratioP1;P2;durP2;ratioP2
61344;SDS011;47216;42.656;23.232;2024-02-28T00:02:20;19.20;;;7.43;;
61344;SDS011;47216;42.656;23.232;2024-02-28T00:04:48;14.70;;;7.97;;
61344;SDS011;47216;42.656;23.232;2024-02-28T00:07:15;13.00;;;7.77;;
61344;SDS011;47216;42.656;23.232;2024-02-28T00:09:42;13.30;;;6.97;;
61344;SDS011;47216;42.656;23.232;2024-02-28T00:12:09;10.90;;;6.00;;
61344;SDS011;47216;42.656;23.232;2024-02-28T00:14:36;10.53;;;6.37;;
61344;SDS011;47216;42.656;23.232;2024-02-28T00:17:03;10.87;;;6.33;;
61344;SDS011;47216;42.656;23.232;2024-02-28T00:19:30;12.90;;;6.87;;
61344;SDS011;47216;42.656;23.232;2024-02-28T00:21:58;11.07;;;6.53;;
61344;SDS011;47216;42.656;23.232;2024-02-28T00:24:26;14.53;;;7.70;;
61344;SDS011;47216;42.656;23.232;2024-02-28T00:26:53;13.80;;;7.73;;
61344;SDS011;47216;42.656;23.232;2024-02-28T00:29:19;16.50;;;8.33;;
61344;SDS011;47216;42.656;23.232;2024-02-28T00:31:46;13.70;;;6.63;;
61344;SDS011;47216;42.656;23.232;2024-02-28T00:34:13;14.03;;;6.77;;
61344;SDS011;47216;42.656;23.232;2024-02-28T00:36:40;11.37;;;6.20;;
61344;SDS011;47216;42.656;23.232;2024-02-28T00:39:08;11.20;;;6.03;;
61344;SDS011;47216;42.656;23.232;2024-02-28T00:41:35;11.67;;;6.20;;
61344;SDS011;47216;42.656;23.232;2024-02-28T00:44:02;12.03;;;6.80;;
61344;SDS011;47216;42.656;23.232;2024-02-28T00:46:29;14.00;;;6.57;;
61344;SDS011;47216;42.656;23.232;2024-02-28T00:48:55;13.43;;;6.40;;
61344;SDS011;47216;42.656;23.232;2024-02-28T00:51:22;15.03;;;6.73;;
61344;SDS011;47216;42.656;23.232;2024-02-28T00:53:49;12.77;;;5.80;;
61344;SDS011;47216;42.656;23.232;2024-02-28T00:56:17;11.43;;;6.80;;
61344;SDS011;47216;42.656;23.232;2024-02-28T00:58:44;11.90;;;6.27;;
61344;SDS011;47216;42.656;23.232;2024-02-28T01:01:10;11.40;;;6.73;;
61344;SDS011;47216;42.656;23.232;2024-02-28T01:03:38;14.97;;;7.33;;
61344;SDS011;47216;42.656;23.232;2024-02-28T01:06:05;13.00;;;6.80;;
61344;SDS011;47216;42.656;23.232;2024-02-28T01:08:32;11.23;;;6.83;;
61344;SDS011;47216;42.656;23.232;2024-02-28T01:10:59;12.17;;;6.60;;
61344;SDS011;47216;42.656;23.232;2024-02-28T01:13:27;11.97;;;6.40;;
61344;SDS011;47216;42.656;23.232;2024-02-28T01:15:53;11.83;;;6.27;;
61344;SDS011;47216;42.656;23.232;2024-02-28T01:18:20;10.20;;;5.73;;
61344;SDS011;47216;42.656;23.232;2024-02-28T01:20:47;13.07;;;6.37;;
61344;SDS011;47216;42.656;23.232;2024-02-28T01:23:15;14.70;;;7.77;;
61344;SDS011;47216;42.656;23.232;2024-02-28T01:25:42;15.23;;;8.37;;
61344;SDS011;47216;42.656;23.232;2024-02-28T01:28:09;13.03;;;6.50;;
61344;SDS011;47216;42.656;23.232;2024-02-28T01:30:37;10.43;;;6.23;;
61344;SDS011;47216;42.656;23.232;2024-02-28T01:33:04;10.57;;;6.53;;
61344;SDS011;47216;42.656;23.232;2024-02-28T01:35:31;13.83;;;6.80;;
61344;SDS011;47216;42.656;23.232;2024-02-28T01:37:57;11.70;;;6.67;;
61344;SDS011;47216;42.656;23.232;2024-02-28T01:40:24;12.20;;;7.30;;
61344;SDS011;47216;42.656;23.232;2024-02-28T01:42:51;12.73;;;6.60;;
61344;SDS011;47216;42.656;23.232;2024-02-28T01:45:18;11.43;;;6.33;;
61344;SDS011;47216;42.656;23.232;2024-02-28T01:47:46;11.47;;;6.50;;
61344;SDS011;47216;42.656;23.232;2024-02-28T01:50:12;14.97;;;7.07;;
61344;SDS011;47216;42.656;23.232;2024-02-28T01:52:39;14.83;;;6.30;;
61344;SDS011;47216;42.656;23.232;2024-02-28T01:55:07;10.23;;;5.73;;
61344;SDS011;47216;42.656;23.232;2024-02-28T01:57:34;10.97;;;5.83;;
61344;SDS011;47216;42.656;23.232;2024-02-28T02:00:04;15.13;;;5.73;;
61344;SDS011;47216;42.656;23.232;2024-02-28T02:02:33;12.10;;;6.30;;
61344;SDS011;47216;42.656;23.232;2024-02-28T02:05:01;14.30;;;6.20;;
61344;SDS011;47216;42.656;23.232;2024-02-28T02:07:28;10.53;;;5.97;;
61344;SDS011;47216;42.656;23.232;2024-02-28T02:09:56;17.90;;;6.67;;
61344;SDS011;47216;42.656;23.232;2024-02-28T02:12:22;11.53;;;6.70;;
61344;SDS011;47216;42.656;23.232;2024-02-28T02:14:49;13.87;;;6.90;;
61344;SDS011;47216;42.656;23.232;2024-02-28T02:17:16;14.47;;;7.30;;
61344;SDS011;47216;42.656;23.232;2024-02-28T02:19:43;15.93;;;6.80;;
61344;SDS011;47216;42.656;23.232;2024-02-28T02:22:12;11.33;;;6.80;;
61344;SDS011;47216;42.656;23.232;2024-02-28T02:24:41;13.50;;;6.67;;
61344;SDS011;47216;42.656;23.232;2024-02-28T02:27:08;10.33;;;6.40;;
61344;SDS011;47216;42.656;23.232;2024-02-28T02:29:35;13.10;;;6.13;;
61344;SDS011;47216;42.656;23.232;2024-02-28T02:32:02;8.30;;;5.97;;
61344;SDS011;47216;42.656;23.232;2024-02-28T02:34:29;13.03;;;8.23;;
61344;SDS011;47216;42.656;23.232;2024-02-28T02:36:56;14.70;;;8.43;;
61344;SDS011;47216;42.656;23.232;2024-02-28T02:39:23;18.43;;;8.17;;
61344;SDS011;47216;42.656;23.232;2024-02-28T02:41:51;19.07;;;6.97;;
61344;SDS011;47216;42.656;23.232;2024-02-28T02:44:18;13.53;;;6.83;;
61344;SDS011;47216;42.656;23.232;2024-02-28T02:46:44;14.70;;;7.90;;
61344;SDS011;47216;42.656;23.232;2024-02-28T02:49:11;11.13;;;6.80;;
61344;SDS011;47216;42.656;23.232;2024-02-28T02:51:38;12.83;;;7.73;;
61344;SDS011;47216;42.656;23.232;2024-02-28T02:54:07;13.40;;;7.77;;
61344;SDS011;47216;42.656;23.232;2024-02-28T02:56:34;15.23;;;7.03;;
61344;SDS011;47216;42.656;23.232;2024-02-28T02:59:02;9.87;;;6.27;;
61344;SDS011;47216;42.656;23.232;2024-02-28T03:01:29;11.20;;;7.27;;
61344;SDS011;47216;42.656;23.232;2024-02-28T03:03:56;14.80;;;7.10;;
61344;SDS011;47216;42.656;23.232;2024-02-28T03:06:22;13.73;;;7.40;;
61344;SDS011;47216;42.656;23.232;2024-02-28T03:08:49;12.60;;;6.53;;
61344;SDS011;47216;42.656;23.232;2024-02-28T03:11:17;12.03;;;6.47;;
61344;SDS011;47216;42.656;23.232;2024-02-28T03:13:44;8.37;;;5.87;;
61344;SDS011;47216;42.656;23.232;2024-02-28T03:16:12;11.17;;;6.00;;
61344;SDS011;47216;42.656;23.232;2024-02-28T03:18:39;19.17;;;10.07;;
61344;SDS011;47216;42.656;23.232;2024-02-28T03:21:05;24.10;;;9.80;;
61344;SDS011;47216;42.656;23.232;2024-02-28T03:23:33;21.37;;;11.03;;
61344;SDS011;47216;42.656;23.232;2024-02-28T03:26:01;19.60;;;8.30;;
61344;SDS011;47216;42.656;23.232;2024-02-28T03:28:28;12.57;;;6.73;;
61344;SDS011;47216;42.656;23.232;2024-02-28T03:30:55;12.37;;;7.57;;
61344;SDS011;47216;42.656;23.232;2024-02-28T03:33:23;15.03;;;7.90;;
61344;SDS011;47216;42.656;23.232;2024-02-28T03:35:50;10.40;;;7.07;;
61344;SDS011;47216;42.656;23.232;2024-02-28T03:38:17;15.40;;;7.30;;
61344;SDS011;47216;42.656;23.232;2024-02-28T03:40:43;14.33;;;7.27;;
61344;SDS011;47216;42.656;23.232;2024-02-28T03:43:11;12.97;;;7.03;;
61344;SDS011;47216;42.656;23.232;2024-02-28T03:45:39;17.13;;;8.20;;
61344;SDS011;47216;42.656;23.232;2024-02-28T03:48:06;12.73;;;7.17;;
61344;SDS011;47216;42.656;23.232;2024-02-28T03:50:34;16.17;;;8.07;;
61344;SDS011;47216;42.656;23.232;2024-02-28T03:53:01;12.60;;;6.87;;
61344;SDS011;47216;42.656;23.232;2024-02-28T03:55:28;13.80;;;7.20;;
61344;SDS011;47216;42.656;23.232;2024-02-28T03:57:54;16.50;;;8.33;;
61344;SDS011;47216;42.656;23.232;2024-02-28T04:00:21;14.47;;;8.00;;
61344;SDS011;47216;42.656;23.232;2024-02-28T04:02:48;15.63;;;7.03;;
61344;SDS011;47216;42.656;23.232;2024-02-28T04:05:15;14.10;;;7.83;;
61344;SDS011;47216;42.656;23.232;2024-02-28T04:07:43;13.07;;;7.17;;
61344;SDS011;47216;42.656;23.232;2024-02-28T04:10:10;16.93;;;7.47;;
61344;SDS011;47216;42.656;23.232;2024-02-28T04:12:37;14.40;;;8.57;;
61344;SDS011;47216;42.656;23.232;2024-02-28T04:15:04;14.67;;;7.70;;
61344;SDS011;47216;42.656;23.232;2024-02-28T04:17:31;14.17;;;8.23;;
61344;SDS011;47216;42.656;23.232;2024-02-28T04:19:58;17.90;;;10.60;;
61344;SDS011;47216;42.656;23.232;2024-02-28T04:22:29;16.37;;;8.57;;
61344;SDS011;47216;42.656;23.232;2024-02-28T04:24:57;14.40;;;7.90;;
61344;SDS011;47216;42.656;23.232;2024-02-28T04:27:24;15.13;;;8.20;;
61344;SDS011;47216;42.656;23.232;2024-02-28T04:29:51;14.90;;;8.37;;
61344;SDS011;47216;42.656;23.232;2024-02-28T04:32:17;19.20;;;9.30;;
61344;SDS011;47216;42.656;23.232;2024-02-28T04:34:44;12.70;;;7.97;;
61344;SDS011;47216;42.656;23.232;2024-02-28T04:37:11;16.20;;;7.73;;
61344;SDS011;47216;42.656;23.232;2024-02-28T04:39:38;15.53;;;8.03;;
61344;SDS011;47216;42.656;23.232;2024-02-28T04:42:06;19.50;;;10.60;;
61344;SDS011;47216;42.656;23.232;2024-02-28T04:44:33;16.03;;;8.47;;
61344;SDS011;47216;42.656;23.232;2024-02-28T04:47:00;13.10;;;7.83;;
61344;SDS011;47216;42.656;23.232;2024-02-28T04:49:27;27.13;;;13.30;;
61344;SDS011;47216;42.656;23.232;2024-02-28T04:51:54;22.53;;;10.43;;
61344;SDS011;47216;42.656;23.232;2024-02-28T04:54:21;15.47;;;8.87;;
61344;SDS011;47216;42.656;23.232;2024-02-28T04:56:48;15.33;;;8.03;;
61344;SDS011;47216;42.656;23.232;2024-02-28T04:59:17;17.93;;;8.60;;
61344;SDS011;47216;42.656;23.232;2024-02-28T05:01:44;13.97;;;8.93;;
61344;SDS011;47216;42.656;23.232;2024-02-28T05:04:11;17.00;;;8.13;;
61344;SDS011;47216;42.656;23.232;2024-02-28T05:06:37;15.80;;;7.67;;
61344;SDS011;47216;42.656;23.232;2024-02-28T05:09:06;14.80;;;8.23;;
61344;SDS011;47216;42.656;23.232;2024-02-28T05:11:34;18.97;;;9.17;;
61344;SDS011;47216;42.656;23.232;2024-02-28T05:14:00;15.40;;;8.03;;
61344;SDS011;47216;42.656;23.232;2024-02-28T05:16:28;12.67;;;7.43;;
61344;SDS011;47216;42.656;23.232;2024-02-28T05:18:55;14.53;;;7.83;;
61344;SDS011;47216;42.656;23.232;2024-02-28T05:21:22;15.07;;;8.57;;
61344;SDS011;47216;42.656;23.232;2024-02-28T05:23:49;16.00;;;8.57;;
61344;SDS011;47216;42.656;23.232;2024-02-28T05:26:16;15.53;;;8.50;;
61344;SDS011;47216;42.656;23.232;2024-02-28T05:28:42;16.03;;;9.70;;
61344;SDS011;47216;42.656;23.232;2024-02-28T05:31:19;20.20;;;10.77;;
61344;SDS011;47216;42.656;23.232;2024-02-28T05:33:49;16.63;;;9.43;;
61344;SDS011;47216;42.656;23.232;2024-02-28T05:36:17;19.63;;;10.40;;
61344;SDS011;47216;42.656;23.232;2024-02-28T05:38:44;17.63;;;8.67;;
61344;SDS011;47216;42.656;23.232;2024-02-28T05:41:11;15.03;;;8.27;;
61344;SDS011;47216;42.656;23.232;2024-02-28T05:43:38;16.03;;;8.63;;
61344;SDS011;47216;42.656;23.232;2024-02-28T05:46:03;20.87;;;8.20;;
61344;SDS011;47216;42.656;23.232;2024-02-28T05:48:30;18.83;;;8.27;;
61344;SDS011;47216;42.656;23.232;2024-02-28T05:51:00;14.63;;;8.07;;
61344;SDS011;47216;42.656;23.232;2024-02-28T05:53:28;19.43;;;9.70;;
61344;SDS011;47216;42.656;23.232;2024-02-28T05:55:57;21.87;;;10.90;;
61344;SDS011;47216;42.656;23.232;2024-02-28T05:58:24;42.80;;;16.10;;
61344;SDS011;47216;42.656;23.232;2024-02-28T06:00:51;28.63;;;11.90;;
61344;SDS011;47216;42.656;23.232;2024-02-28T06:03:18;22.23;;;9.97;;
61344;SDS011;47216;42.656;23.232;2024-02-28T06:05:45;91.87;;;24.43;;
61344;SDS011;47216;42.656;23.232;2024-02-28T06:08:13;171.40;;;38.30;;
61344;SDS011;47216;42.656;23.232;2024-02-28T06:10:40;87.00;;;22.93;;
61344;SDS011;47216;42.656;23.232;2024-02-28T06:13:08;58.67;;;18.10;;
61344;SDS011;47216;42.656;23.232;2024-02-28T06:15:35;63.43;;;17.97;;
61344;SDS011;47216;42.656;23.232;2024-02-28T06:18:02;49.57;;;16.30;;
61344;SDS011;47216;42.656;23.232;2024-02-28T06:20:29;52.63;;;19.37;;
61344;SDS011;47216;42.656;23.232;2024-02-28T06:22:56;37.73;;;16.27;;
61344;SDS011;47216;42.656;23.232;2024-02-28T06:25:24;25.87;;;12.10;;
61344;SDS011;47216;42.656;23.232;2024-02-28T06:27:53;23.50;;;10.80;;
61344;SDS011;47216;42.656;23.232;2024-02-28T06:30:20;16.90;;;9.20;;
61344;SDS011;47216;42.656;23.232;2024-02-28T06:32:47;32.57;;;17.37;;
61344;SDS011;47216;42.656;23.232;2024-02-28T06:35:13;36.57;;;17.97;;
61344;SDS011;47216;42.656;23.232;2024-02-28T06:37:41;33.80;;;16.17;;
61344;SDS011;47216;42.656;23.232;2024-02-28T06:40:09;23.07;;;13.90;;
61344;SDS011;47216;42.656;23.232;2024-02-28T06:42:37;24.43;;;12.50;;
61344;SDS011;47216;42.656;23.232;2024-02-28T06:45:05;23.93;;;13.47;;
61344;SDS011;47216;42.656;23.232;2024-02-28T06:47:33;20.33;;;12.27;;
61344;SDS011;47216;42.656;23.232;2024-02-28T06:50:01;24.07;;;12.60;;
61344;SDS011;47216;42.656;23.232;2024-02-28T06:52:29;26.63;;;12.20;;
61344;SDS011;47216;42.656;23.232;2024-02-28T06:54:56;19.27;;;12.00;;
61344;SDS011;47216;42.656;23.232;2024-02-28T06:57:23;21.63;;;11.63;;
61344;SDS011;47216;42.656;23.232;2024-02-28T06:59:51;20.97;;;11.97;;
61344;SDS011;47216;42.656;23.232;2024-02-28T07:02:18;22.47;;;12.07;;
61344;SDS011;47216;42.656;23.232;2024-02-28T07:04:44;22.27;;;12.20;;
61344;SDS011;47216;42.656;23.232;2024-02-28T07:07:11;20.57;;;12.00;;
61344;SDS011;47216;42.656;23.232;2024-02-28T07:09:38;21.00;;;13.50;;
61344;SDS011;47216;42.656;23.232;2024-02-28T07:12:05;22.93;;;13.97;;
61344;SDS011;47216;42.656;23.232;2024-02-28T07:14:32;21.93;;;13.33;;
61344;SDS011;47216;42.656;23.232;2024-02-28T07:17:00;25.00;;;13.43;;
61344;SDS011;47216;42.656;23.232;2024-02-28T07:19:27;22.63;;;12.80;;
61344;SDS011;47216;42.656;23.232;2024-02-28T07:21:54;23.53;;;12.90;;
61344;SDS011;47216;42.656;23.232;2024-02-28T07:24:21;29.23;;;14.00;;
61344;SDS011;47216;42.656;23.232;2024-02-28T07:26:48;23.80;;;12.40;;
61344;SDS011;47216;42.656;23.232;2024-02-28T07:29:16;26.00;;;13.13;;
61344;SDS011;47216;42.656;23.232;2024-02-28T07:31:43;23.10;;;13.10;;
61344;SDS011;47216;42.656;23.232;2024-02-28T07:34:12;21.80;;;12.83;;
61344;SDS011;47216;42.656;23.232;2024-02-28T07:36:38;24.30;;;13.87;;
61344;SDS011;47216;42.656;23.232;2024-02-28T07:39:05;23.63;;;13.37;;
61344;SDS011;47216;42.656;23.232;2024-02-28T07:41:32;23.23;;;12.67;;
61344;SDS011;47216;42.656;23.232;2024-02-28T07:43:59;23.20;;;12.40;;
61344;SDS011;47216;42.656;23.232;2024-02-28T07:46:25;22.03;;;12.20;;
61344;SDS011;47216;42.656;23.232;2024-02-28T07:48:53;25.27;;;12.17;;
61344;SDS011;47216;42.656;23.232;2024-02-28T07:51:21;17.27;;;10.63;;
61344;SDS011;47216;42.656;23.232;2024-02-28T07:53:48;18.30;;;9.70;;
61344;SDS011;47216;42.656;23.232;2024-02-28T07:56:17;16.83;;;9.87;;
61344;SDS011;47216;42.656;23.232;2024-02-28T07:58:45;16.50;;;10.73;;
61344;SDS011;47216;42.656;23.232;2024-02-28T08:01:12;21.87;;;10.97;;
61344;SDS011;47216;42.656;23.232;2024-02-28T08:03:39;20.53;;;11.33;;
61344;SDS011;47216;42.656;23.232;2024-02-28T08:06:06;20.43;;;11.83;;
61344;SDS011;47216;42.656;23.232;2024-02-28T08:08:35;15.37;;;10.33;;
61344;SDS011;47216;42.656;23.232;2024-02-28T08:11:02;20.83;;;11.73;;
61344;SDS011;47216;42.656;23.232;2024-02-28T08:13:29;25.77;;;11.83;;
61344;SDS011;47216;42.656;23.232;2024-02-28T08:15:58;20.87;;;12.73;;
61344;SDS011;47216;42.656;23.232;2024-02-28T08:18:25;29.63;;;12.83;;
61344;SDS011;47216;42.656;23.232;2024-02-28T08:20:53;25.53;;;12.30;;
61344;SDS011;47216;42.656;23.232;2024-02-28T08:23:22;24.90;;;13.33;;
61344;SDS011;47216;42.656;23.232;2024-02-28T08:25:50;23.90;;;12.93;;
61344;SDS011;47216;42.656;23.232;2024-02-28T08:28:18;20.40;;;12.80;;
61344;SDS011;47216;42.656;23.232;2024-02-28T08:30:44;22.30;;;12.57;;
61344;SDS011;47216;42.656;23.232;2024-02-28T08:33:11;24.23;;;11.87;;
61344;SDS011;47216;42.656;23.232;2024-02-28T08:35:38;22.50;;;12.33;;
61344;SDS011;47216;42.656;23.232;2024-02-28T08:38:05;24.20;;;12.97;;
61344;SDS011;47216;42.656;23.232;2024-02-28T08:40:32;25.70;;;13.40;;
61344;SDS011;47216;42.656;23.232;2024-02-28T08:43:00;20.33;;;11.90;;
61344;SDS011;47216;42.656;23.232;2024-02-28T08:45:27;19.00;;;11.50;;
61344;SDS011;47216;42.656;23.232;2024-02-28T08:47:53;18.50;;;11.07;;
61344;SDS011;47216;42.656;23.232;2024-02-28T08:50:22;23.57;;;11.80;;
61344;SDS011;47216;42.656;23.232;2024-02-28T08:52:49;21.07;;;11.30;;
61344;SDS011;47216;42.656;23.232;2024-02-28T08:55:16;21.63;;;11.67;;
61344;SDS011;47216;42.656;23.232;2024-02-28T08:57:45;23.20;;;11.73;;
61344;SDS011;47216;42.656;23.232;2024-02-28T09:00:14;18.83;;;11.13;;
61344;SDS011;47216;42.656;23.232;2024-02-28T09:02:42;20.47;;;11.17;;
61344;SDS011;47216;42.656;23.232;2024-02-28T09:05:09;18.87;;;10.97;;
61344;SDS011;47216;42.656;23.232;2024-02-28T09:07:36;22.47;;;11.27;;
61344;SDS011;47216;42.656;23.232;2024-02-28T09:10:03;18.03;;;10.13;;
61344;SDS011;47216;42.656;23.232;2024-02-28T09:12:31;21.53;;;12.07;;
61344;SDS011;47216;42.656;23.232;2024-02-28T09:14:58;19.70;;;10.00;;
61344;SDS011;47216;42.656;23.232;2024-02-28T09:17:27;15.47;;;9.77;;
61344;SDS011;47216;42.656;23.232;2024-02-28T09:19:53;17.70;;;10.97;;
61344;SDS011;47216;42.656;23.232;2024-02-28T09:22:20;25.50;;;11.20;;
61344;SDS011;47216;42.656;23.232;2024-02-28T09:24:49;17.03;;;10.60;;
61344;SDS011;47216;42.656;23.232;2024-02-28T09:27:15;17.00;;;11.37;;
61344;SDS011;47216;42.656;23.232;2024-02-28T09:29:43;21.63;;;10.77;;
61344;SDS011;47216;42.656;23.232;2024-02-28T09:32:10;21.03;;;11.53;;
61344;SDS011;47216;42.656;23.232;2024-02-28T09:34:38;20.70;;;11.53;;
61344;SDS011;47216;42.656;23.232;2024-02-28T09:37:05;20.77;;;10.27;;
61344;SDS011;47216;42.656;23.232;2024-02-28T09:39:32;15.27;;;9.80;;
61344;SDS011;47216;42.656;23.232;2024-02-28T09:41:59;20.63;;;10.37;;
61344;SDS011;47216;42.656;23.232;2024-02-28T09:44:26;17.47;;;10.57;;
61344;SDS011;47216;42.656;23.232;2024-02-28T09:46:53;19.37;;;10.07;;
61344;SDS011;47216;42.656;23.232;2024-02-28T09:49:20;16.20;;;9.87;;
61344;SDS011;47216;42.656;23.232;2024-02-28T09:51:49;14.90;;;10.20;;
61344;SDS011;47216;42.656;23.232;2024-02-28T09:54:17;19.53;;;11.50;;
61344;SDS011;47216;42.656;23.232;2024-02-28T09:56:43;19.63;;;9.63;;
61344;SDS011;47216;42.656;23.232;2024-02-28T09:59:10;20.00;;;9.77;;
61344;SDS011;47216;42.656;23.232;2024-02-28T10:01:41;19.83;;;9.97;;
61344;SDS011;47216;42.656;23.232;2024-02-28T10:04:09;23.87;;;10.10;;
61344;SDS011;47216;42.656;23.232;2024-02-28T10:06:39;16.57;;;9.63;;
61344;SDS011;47216;42.656;23.232;2024-02-28T10:09:08;17.13;;;9.10;;
61344;SDS011;47216;42.656;23.232;2024-02-28T10:11:35;16.07;;;9.17;;
61344;SDS011;47216;42.656;23.232;2024-02-28T10:14:02;20.80;;;9.33;;
61344;SDS011;47216;42.656;23.232;2024-02-28T10:16:29;21.83;;;9.40;;
61344;SDS011;47216;42.656;23.232;2024-02-28T10:18:56;25.17;;;9.53;;
61344;SDS011;47216;42.656;23.232;2024-02-28T10:21:23;16.17;;;9.53;;
61344;SDS011;47216;42.656;23.232;2024-02-28T10:23:51;16.07;;;9.27;;
61344;SDS011;47216;42.656;23.232;2024-02-28T10:26:19;19.73;;;10.67;;
61344;SDS011;47216;42.656;23.232;2024-02-28T10:28:46;19.60;;;11.07;;
61344;SDS011;47216;42.656;23.232;2024-02-28T10:31:14;20.17;;;11.30;;
61344;SDS011;47216;42.656;23.232;2024-02-28T10:33:41;22.27;;;12.33;;
61344;SDS011;47216;42.656;23.232;2024-02-28T10:36:08;24.90;;;12.93;;
61344;SDS011;47216;42.656;23.232;2024-02-28T10:38:36;21.37;;;12.07;;
61344;SDS011;47216;42.656;23.232;2024-02-28T10:41:04;23.13;;;10.73;;
61344;SDS011;47216;42.656;23.232;2024-02-28T10:43:33;23.10;;;11.87;;
61344;SDS011;47216;42.656;23.232;2024-02-28T10:46:00;20.70;;;11.67;;
61344;SDS011;47216;42.656;23.232;2024-02-28T10:48:27;19.83;;;10.93;;
61344;SDS011;47216;42.656;23.232;2024-02-28T10:50:54;20.27;;;10.87;;
61344;SDS011;47216;42.656;23.232;2024-02-28T10:53:22;18.47;;;10.27;;
61344;SDS011;47216;42.656;23.232;2024-02-28T10:55:59;20.83;;;10.40;;
61344;SDS011;47216;42.656;23.232;2024-02-28T10:58:30;21.93;;;11.67;;
61344;SDS011;47216;42.656;23.232;2024-02-28T11:01:03;18.00;;;10.57;;
61344;SDS011;47216;42.656;23.232;2024-02-28T11:03:31;24.10;;;11.27;;
61344;SDS011;47216;42.656;23.232;2024-02-28T11:05:58;19.67;;;10.40;;
61344;SDS011;47216;42.656;23.232;2024-02-28T11:08:27;19.60;;;10.50;;
61344;SDS011;47216;42.656;23.232;2024-02-28T11:10:56;23.57;;;10.43;;
61344;SDS011;47216;42.656;23.232;2024-02-28T11:13:24;23.23;;;12.30;;
61344;SDS011;47216;42.656;23.232;2024-02-28T11:15:52;14.60;;;9.27;;
61344;SDS011;47216;42.656;23.232;2024-02-28T11:18:20;15.13;;;8.87;;
61344;SDS011;47216;42.656;23.232;2024-02-28T11:20:47;14.83;;;7.70;;
61344;SDS011;47216;42.656;23.232;2024-02-28T11:23:16;17.70;;;7.67;;
61344;SDS011;47216;42.656;23.232;2024-02-28T11:25:43;13.17;;;7.90;;
61344;SDS011;47216;42.656;23.232;2024-02-28T11:28:10;12.23;;;8.17;;
61344;SDS011;47216;42.656;23.232;2024-02-28T11:30:37;16.87;;;8.30;;
61344;SDS011;47216;42.656;23.232;2024-02-28T11:33:05;15.53;;;8.23;;
61344;SDS011;47216;42.656;23.232;2024-02-28T11:35:34;17.73;;;8.17;;
61344;SDS011;47216;42.656;23.232;2024-02-28T11:38:01;15.43;;;7.70;;
61344;SDS011;47216;42.656;23.232;2024-02-28T11:40:28;13.53;;;7.87;;
61344;SDS011;47216;42.656;23.232;2024-02-28T11:42:55;13.27;;;7.13;;
61344;SDS011;47216;42.656;23.232;2024-02-28T11:45:24;11.20;;;7.03;;
61344;SDS011;47216;42.656;23.232;2024-02-28T11:47:51;15.53;;;7.63;;
61344;SDS011;47216;42.656;23.232;2024-02-28T11:50:19;12.73;;;6.87;;
61344;SDS011;47216;42.656;23.232;2024-02-28T11:52:46;13.33;;;7.43;;
61344;SDS011;47216;42.656;23.232;2024-02-28T11:55:14;11.97;;;6.20;;
61344;SDS011;47216;42.656;23.232;2024-02-28T11:57:41;12.00;;;6.23;;
61344;SDS011;47216;42.656;23.232;2024-02-28T12:00:08;9.63;;;5.90;;
61344;SDS011;47216;42.656;23.232;2024-02-28T12:02:38;11.03;;;5.50;;
61344;SDS011;47216;42.656;23.232;2024-02-28T12:05:05;10.87;;;5.00;;
61344;SDS011;47216;42.656;23.232;2024-02-28T12:07:33;10.87;;;5.40;;
61344;SDS011;47216;42.656;23.232;2024-02-28T12:10:00;12.90;;;5.97;;
61344;SDS011;47216;42.656;23.232;2024-02-28T12:12:27;10.17;;;5.90;;
61344;SDS011;47216;42.656;23.232;2024-02-28T12:14:57;8.60;;;4.60;;
61344;SDS011;47216;42.656;23.232;2024-02-28T12:17:25;10.30;;;4.90;;
61344;SDS011;47216;42.656;23.232;2024-02-28T12:19:52;8.80;;;5.40;;
61344;SDS011;47216;42.656;23.232;2024-02-28T12:22:19;6.97;;;4.33;;
61344;SDS011;47216;42.656;23.232;2024-02-28T12:24:47;11.43;;;5.20;;
61344;SDS011;47216;42.656;23.232;2024-02-28T12:27:14;11.13;;;5.37;;
61344;SDS011;47216;42.656;23.232;2024-02-28T12:29:41;8.43;;;4.83;;
61344;SDS011;47216;42.656;23.232;2024-02-28T12:32:08;11.43;;;4.90;;
61344;SDS011;47216;42.656;23.232;2024-02-28T12:34:36;7.70;;;4.70;;
61344;SDS011;47216;42.656;23.232;2024-02-28T12:37:03;9.07;;;4.83;;
61344;SDS011;47216;42.656;23.232;2024-02-28T12:39:30;8.87;;;4.77;;
61344;SDS011;47216;42.656;23.232;2024-02-28T12:42:00;9.20;;;4.50;;
61344;SDS011;47216;42.656;23.232;2024-02-28T12:44:27;9.53;;;4.83;;
61344;SDS011;47216;42.656;23.232;2024-02-28T12:46:54;8.33;;;5.13;;
61344;SDS011;47216;42.656;23.232;2024-02-28T12:49:21;8.10;;;4.33;;
61344;SDS011;47216;42.656;23.232;2024-02-28T12:51:48;7.83;;;4.57;;
61344;SDS011;47216;42.656;23.232;2024-02-28T12:54:16;9.27;;;4.23;;
61344;SDS011;47216;42.656;23.232;2024-02-28T12:56:44;9.17;;;4.40;;
61344;SDS011;47216;42.656;23.232;2024-02-28T12:59:12;7.10;;;3.90;;
61344;SDS011;47216;42.656;23.232;2024-02-28T13:01:39;9.60;;;4.10;;
61344;SDS011;47216;42.656;23.232;2024-02-28T13:04:06;11.90;;;4.20;;
61344;SDS011;47216;42.656;23.232;2024-02-28T13:06:33;9.47;;;3.70;;
61344;SDS011;47216;42.656;23.232;2024-02-28T13:09:00;5.83;;;3.90;;
61344;SDS011;47216;42.656;23.232;2024-02-28T13:11:27;10.07;;;5.10;;
61344;SDS011;47216;42.656;23.232;2024-02-28T13:13:54;11.00;;;4.53;;
61344;SDS011;47216;42.656;23.232;2024-02-28T13:16:22;8.03;;;4.60;;
61344;SDS011;47216;42.656;23.232;2024-02-28T13:18:49;8.23;;;6.17;;
61344;SDS011;47216;42.656;23.232;2024-02-28T13:21:16;8.50;;;5.60;;
61344;SDS011;47216;42.656;23.232;2024-02-28T13:23:42;12.87;;;5.80;;
61344;SDS011;47216;42.656;23.232;2024-02-28T13:26:09;8.43;;;5.20;;
61344;SDS011;47216;42.656;23.232;2024-02-28T13:28:42;8.63;;;5.43;;
61344;SDS011;47216;42.656;23.232;2024-02-28T13:31:09;8.80;;;5.33;;
61344;SDS011;47216;42.656;23.232;2024-02-28T13:33:38;12.83;;;5.97;;
61344;SDS011;47216;42.656;23.232;2024-02-28T13:36:06;9.23;;;6.00;;
61344;SDS011;47216;42.656;23.232;2024-02-28T13:38:34;12.80;;;5.43;;
61344;SDS011;47216;42.656;23.232;2024-02-28T13:41:01;12.53;;;6.10;;
61344;SDS011;47216;42.656;23.232;2024-02-28T13:43:28;10.63;;;5.90;;
61344;SDS011;47216;42.656;23.232;2024-02-28T13:45:55;10.97;;;6.50;;
61344;SDS011;47216;42.656;23.232;2024-02-28T13:48:25;12.57;;;6.50;;
61344;SDS011;47216;42.656;23.232;2024-02-28T13:50:55;14.77;;;6.40;;
61344;SDS011;47216;42.656;23.232;2024-02-28T13:53:22;13.37;;;5.57;;
61344;SDS011;47216;42.656;23.232;2024-02-28T13:55:50;10.30;;;6.07;;
61344;SDS011;47216;42.656;23.232;2024-02-28T13:58:17;10.93;;;5.87;;
61344;SDS011;47216;42.656;23.232;2024-02-28T14:00:44;15.03;;;6.37;;
61344;SDS011;47216;42.656;23.232;2024-02-28T14:03:12;12.27;;;5.97;;
61344;SDS011;47216;42.656;23.232;2024-02-28T14:05:39;24.27;;;6.90;;
61344;SDS011;47216;42.656;23.232;2024-02-28T14:08:08;12.97;;;6.63;;
61344;SDS011;47216;42.656;23.232;2024-02-28T14:10:37;13.43;;;6.20;;
61344;SDS011;47216;42.656;23.232;2024-02-28T14:13:04;10.53;;;6.17;;
61344;SDS011;47216;42.656;23.232;2024-02-28T14:15:31;14.23;;;6.23;;
61344;SDS011;47216;42.656;23.232;2024-02-28T14:18:00;11.33;;;6.10;;
61344;SDS011;47216;42.656;23.232;2024-02-28T14:20:28;14.03;;;5.97;;